Time;durP1;ratioP1;P1;durP2;ratioP2;P2;SDS_P1;SDS_P2;PMS_P1;PMS_P2;Temp;Humidity;BMP_temperature;BMP_pressure;BME280_temperature;BME280_humidity;BME280_pressure;Samples;Min_cycle;Max_cycle;Signal;HPM_P1;HPM_P2
2021/12/17 00:04:53;;;;;;;34.23;18.30;;;8.70;99.90;;;;;;4975144;28;20738;-85
2021/12/17 00:07:22;;;;;;;34.50;16.87;;;8.60;99.90;;;;;;4991206;23;20208;-87
2021/12/17 00:09:50;;;;;;;34.93;17.30;;;8.60;99.90;;;;;;5073640;28;20777;-86
2021/12/17 00:12:20;;;;;;;37.80;18.67;;;8.60;99.90;;;;;;5052437;28;20241;-85
2021/12/17 00:14:49;;;;;;;34.10;16.80;;;8.60;99.90;;;;;;5051085;28;20201;-84
2021/12/17 00:17:24;;;;;;;43.07;20.07;;;8.60;99.90;;;;;;5054069;28;20201;-84
2021/12/17 00:20:12;;;;;;;30.43;14.73;;;8.60;99.90;;;;;;5053534;28;20243;-85
2021/12/17 00:50:19;;;;;;;45.30;20.77;;;8.60;99.90;;;;;;5053548;28;20617;-83
2021/12/17 00:52:46;;;;;;;48.43;20.90;;;8.60;99.90;;;;;;5052614;28;20275;-86
2021/12/17 00:55:13;;;;;;;51.77;21.57;;;8.60;99.90;;;;;;5052882;28;20202;-86
2021/12/17 00:57:42;;;;;;;49.33;21.93;;;8.60;99.90;;;;;;5070908;28;20240;-85
2021/12/17 01:00:13;;;;;;;50.17;22.43;;;8.60;99.90;;;;;;5072728;28;20211;-87
2021/12/17 01:02:41;;;;;;;50.93;22.43;;;8.60;99.90;;;;;;5073101;28;20205;-88
2021/12/17 01:05:12;;;;;;;67.30;23.00;;;8.60;99.90;;;;;;5075303;28;20231;-87
2021/12/17 01:07:43;;;;;;;43.83;20.37;;;8.70;99.90;;;;;;5052757;28;20694;-85
2021/12/17 01:10:14;;;;;;;51.43;20.43;;;8.70;99.90;;;;;;5058356;28;20213;-86
2021/12/17 01:12:41;;;;;;;47.53;20.17;;;8.70;99.90;;;;;;5072180;28;20221;-82
2021/12/17 01:15:14;;;;;;;37.43;17.53;;;8.70;99.90;;;;;;5071201;28;20194;-84
2021/12/17 01:17:43;;;;;;;39.37;18.13;;;8.60;99.90;;;;;;5072141;28;20514;-84
2021/12/17 01:23:20;;;;;;;44.53;19.07;;;8.60;99.90;;;;;;5057133;28;20206;-90
2021/12/17 01:35:20;;;;;;;39.10;18.03;;;8.60;99.90;;;;;;5052809;28;20496;-89
2021/12/17 01:37:24;;;;;;;56.50;21.00;;;8.60;99.90;;;;;;5052117;28;20562;-82
2021/12/17 01:42:26;;;;;;;45.27;19.67;;;8.60;99.90;;;;;;5048859;28;20208;-82
2021/12/17 01:44:53;;;;;;;47.47;20.40;;;8.70;99.90;;;;;;5058797;28;20266;-84
2021/12/17 01:47:20;;;;;;;45.70;19.23;;;8.70;99.90;;;;;;5070355;28;20800;-87
2021/12/17 02:00:49;;;;;;;43.17;18.43;;;8.60;99.90;;;;;;5051979;28;20738;-84
2021/12/17 02:03:17;;;;;;;44.13;18.07;;;8.70;99.90;;;;;;5051839;28;20297;-90
2021/12/17 02:05:45;;;;;;;43.93;18.30;;;8.70;99.90;;;;;;5052231;28;20206;-90
2021/12/17 02:08:13;;;;;;;38.93;17.57;;;8.70;99.90;;;;;;5052533;28;20609;-91
2021/12/17 02:30:17;;;;;;;24.03;11.60;;;8.60;99.90;;;;;;5052820;28;20251;-89
2021/12/17 02:32:46;;;;;;;23.53;12.00;;;8.50;99.90;;;;;;5051811;28;20225;-91
2021/12/17 02:35:31;;;;;;;19.93;10.70;;;8.50;99.90;;;;;;5051870;28;20202;-90
2021/12/17 02:38:00;;;;;;;22.37;11.33;;;8.50;99.90;;;;;;5052261;28;20233;-90
2021/12/17 02:45:56;;;;;;;19.90;9.93;;;8.50;99.90;;;;;;5055805;28;20321;-86
2021/12/17 02:48:24;;;;;;;19.23;9.87;;;8.50;99.90;;;;;;5056068;28;20198;-86
2021/12/17 02:50:53;;;;;;;21.83;11.23;;;8.50;99.90;;;;;;5055996;28;20205;-90
2021/12/17 02:53:24;;;;;;;20.63;10.03;;;8.50;99.90;;;;;;5055474;28;20198;-88
2021/12/17 02:55:54;;;;;;;15.90;9.73;;;8.50;99.90;;;;;;5055907;28;20202;-87
2021/12/17 02:58:24;;;;;;;17.80;8.80;;;8.50;99.90;;;;;;5055386;28;20234;-88
2021/12/17 03:00:52;;;;;;;19.80;9.97;;;8.50;99.90;;;;;;5055808;28;20228;-88
2021/12/17 03:03:20;;;;;;;20.87;10.13;;;8.50;99.90;;;;;;5055627;28;20216;-87
2021/12/17 03:05:48;;;;;;;23.50;11.37;;;8.50;99.90;;;;;;5055549;28;20233;-91
2021/12/17 03:08:16;;;;;;;17.97;9.47;;;8.50;99.90;;;;;;5055574;28;20244;-90
2021/12/17 03:10:47;;;;;;;21.90;10.40;;;8.50;99.90;;;;;;5055636;28;20297;-91
2021/12/17 03:13:14;;;;;;;17.73;9.50;;;8.50;99.90;;;;;;5055549;28;20344;-89
2021/12/17 03:15:48;;;;;;;19.27;9.83;;;8.50;99.90;;;;;;5054662;28;20198;-86
2021/12/17 03:23:52;;;;;;;19.50;9.77;;;8.50;99.90;;;;;;5072196;28;20298;-90
2021/12/17 03:26:22;;;;;;;19.77;9.47;;;8.50;99.90;;;;;;5075847;28;20216;-91
2021/12/17 03:28:51;;;;;;;21.23;10.33;;;8.50;99.90;;;;;;5075464;28;20205;-87
2021/12/17 03:31:20;;;;;;;23.77;10.47;;;8.50;99.90;;;;;;5075232;28;20213;-87
2021/12/17 03:33:51;;;;;;;17.83;9.07;;;8.50;99.90;;;;;;5075736;28;20190;-91
2021/12/17 03:36:19;;;;;;;21.00;10.20;;;8.50;99.90;;;;;;5075299;28;20197;-90
2021/12/17 03:38:48;;;;;;;18.20;9.03;;;8.50;99.90;;;;;;5075053;28;20776;-91
2021/12/17 03:41:19;;;;;;;18.47;8.87;;;8.50;99.90;;;;;;5074694;28;20503;-91
2021/12/17 03:43:49;;;;;;;17.90;9.77;;;8.50;99.90;;;;;;5075443;28;20197;-91
2021/12/17 03:46:17;;;;;;;17.17;8.47;;;8.50;99.90;;;;;;5061316;28;20222;-91
2021/12/17 03:48:45;;;;;;;18.40;9.07;;;8.50;99.90;;;;;;5053969;28;20198;-89
2021/12/17 03:51:14;;;;;;;19.13;8.87;;;8.50;99.90;;;;;;5055087;28;20556;-91
2021/12/17 03:53:44;;;;;;;19.17;9.33;;;8.50;99.90;;;;;;5054923;28;20206;-87
2021/12/17 03:56:11;;;;;;;19.03;8.43;;;8.50;99.90;;;;;;5054874;28;20495;-89
2021/12/17 03:58:38;;;;;;;19.23;8.77;;;8.50;99.90;;;;;;5054824;28;20217;-88
2021/12/17 04:01:07;;;;;;;15.87;7.60;;;8.50;99.90;;;;;;5055321;28;20198;-89
2021/12/17 04:03:34;;;;;;;16.27;8.07;;;8.50;99.90;;;;;;5074081;28;20206;-87
2021/12/17 04:06:01;;;;;;;17.30;8.33;;;8.50;99.90;;;;;;5074370;28;20197;-89
2021/12/17 04:08:28;;;;;;;16.97;8.43;;;8.50;99.90;;;;;;5063208;28;20240;-90
2021/12/17 04:11:03;;;;;;;23.63;10.43;;;8.50;99.90;;;;;;5052294;28;20190;-92
2021/12/17 04:13:33;;;;;;;19.83;9.70;;;8.50;99.90;;;;;;5051919;28;20220;-91
2021/12/17 04:16:03;;;;;;;17.90;9.00;;;8.50;99.90;;;;;;5051465;28;20860;-91
2021/12/17 04:18:32;;;;;;;16.07;8.40;;;8.50;99.90;;;;;;5052427;28;20224;-90
2021/12/17 04:21:03;;;;;;;19.40;9.40;;;8.50;99.90;;;;;;5051071;28;20190;-88
2021/12/17 04:23:31;;;;;;;18.47;8.43;;;8.50;99.90;;;;;;5050188;28;20296;-92
2021/12/17 04:25:58;;;;;;;19.00;9.33;;;8.50;99.90;;;;;;5053625;28;20206;-89
2021/12/17 04:28:25;;;;;;;16.90;8.80;;;8.50;99.90;;;;;;5053957;28;20205;-91
2021/12/17 04:30:52;;;;;;;18.87;9.10;;;8.50;99.90;;;;;;5054188;28;20209;-88
2021/12/17 04:33:19;;;;;;;21.40;9.87;;;8.50;99.90;;;;;;5060196;28;20244;-93
2021/12/17 04:35:47;;;;;;;18.53;8.10;;;8.50;99.90;;;;;;5073634;28;20756;-90
2021/12/17 04:38:16;;;;;;;26.63;11.13;;;8.50;99.90;;;;;;5069703;28;20213;-88
2021/12/17 04:40:44;;;;;;;21.90;9.90;;;8.50;99.90;;;;;;5053290;28;20252;-88
2021/12/17 04:43:19;;;;;;;20.47;9.17;;;8.50;99.90;;;;;;5052991;28;20202;-90
2021/12/17 04:45:56;;;;;;;18.23;8.77;;;8.50;99.90;;;;;;5066105;28;20217;-88
2021/12/17 04:59:22;;;;;;;19.70;8.70;;;8.50;99.90;;;;;;5061463;28;20220;-89
2021/12/17 05:01:49;;;;;;;22.43;9.03;;;8.50;99.90;;;;;;5073152;28;20190;-88
2021/12/17 05:04:16;;;;;;;22.07;9.57;;;8.50;99.90;;;;;;5073997;28;20513;-90
2021/12/17 05:06:44;;;;;;;23.67;10.40;;;8.50;99.90;;;;;;5052599;28;20205;-90
2021/12/17 05:09:21;;;;;;;23.20;9.80;;;8.50;99.90;;;;;;5053793;28;20801;-90
2021/12/17 05:20:27;;;;;;;24.17;10.80;;;8.60;99.90;;;;;;5046430;28;20251;-89
2021/12/17 05:22:58;;;;;;;26.33;10.80;;;8.60;99.90;;;;;;5053212;28;20202;-88
2021/12/17 05:25:27;;;;;;;24.30;11.00;;;8.60;99.90;;;;;;5059275;28;20219;-89
2021/12/17 05:27:59;;;;;;;25.80;11.43;;;8.60;99.90;;;;;;5072810;28;20244;-89
2021/12/17 05:30:27;;;;;;;20.73;9.80;;;8.60;99.90;;;;;;5073239;28;20499;-88
2021/12/17 05:32:53;;;;;;;24.23;10.30;;;8.60;99.90;;;;;;5073206;28;20224;-90
2021/12/17 05:35:20;;;;;;;22.87;9.63;;;8.60;99.90;;;;;;5072507;28;20194;-89
2021/12/17 05:37:47;;;;;;;19.23;9.20;;;8.60;99.90;;;;;;5071633;28;20699;-88
2021/12/17 05:40:16;;;;;;;18.57;8.47;;;8.60;99.90;;;;;;5054708;28;20210;-88
2021/12/17 05:42:43;;;;;;;16.80;7.60;;;8.60;99.90;;;;;;5055385;28;20202;-90
2021/12/17 05:45:21;;;;;;;19.33;8.77;;;8.60;99.90;;;;;;5062545;28;20206;-90
2021/12/17 05:47:49;;;;;;;15.87;8.07;;;8.60;99.90;;;;;;5053186;28;20225;-90
2021/12/17 05:50:16;;;;;;;17.17;7.70;;;8.60;99.90;;;;;;5053196;28;20197;-90
2021/12/17 05:52:42;;;;;;;18.30;8.03;;;8.60;99.90;;;;;;5052841;28;20226;-90
2021/12/17 05:55:10;;;;;;;18.30;8.30;;;8.60;99.90;;;;;;5053244;28;20277;-90
2021/12/17 05:57:38;;;;;;;15.23;7.50;;;8.70;99.90;;;;;;5052709;28;20251;-89
2021/12/17 06:00:07;;;;;;;22.37;10.40;;;8.60;99.90;;;;;;5067244;28;20220;-91
2021/12/17 06:02:34;;;;;;;17.30;7.93;;;8.60;99.90;;;;;;5072107;28;20953;-92
2021/12/17 06:05:01;;;;;;;14.97;6.87;;;8.60;99.90;;;;;;5072751;28;20205;-88
2021/12/17 06:07:28;;;;;;;21.17;9.20;;;8.60;99.90;;;;;;5072795;28;20263;-88
2021/12/17 06:09:58;;;;;;;21.00;8.97;;;8.60;99.90;;;;;;5058136;28;20324;-91
2021/12/17 06:12:25;;;;;;;21.60;9.47;;;8.70;99.90;;;;;;5053025;28;20310;-91
2021/12/17 06:14:53;;;;;;;22.20;10.27;;;8.70;99.90;;;;;;5052501;28;20644;-88
2021/12/17 06:17:20;;;;;;;17.17;8.47;;;8.70;99.90;;;;;;5051669;28;20300;-88
2021/12/17 06:19:47;;;;;;;23.40;9.17;;;8.70;99.90;;;;;;5050001;28;20220;-88
2021/12/17 06:22:15;;;;;;;17.37;8.23;;;8.70;99.90;;;;;;5050226;28;20194;-91
2021/12/17 06:24:44;;;;;;;35.07;12.83;;;8.70;99.90;;;;;;5050987;28;20201;-90
2021/12/17 06:27:11;;;;;;;23.23;10.20;;;8.70;99.90;;;;;;5052491;28;20224;-91
2021/12/17 06:29:38;;;;;;;25.80;11.43;;;8.70;99.90;;;;;;5051704;28;20598;-92
2021/12/17 06:32:08;;;;;;;23.67;10.60;;;8.70;99.90;;;;;;5052280;28;20225;-92
2021/12/17 06:34:35;;;;;;;17.63;9.33;;;8.70;99.90;;;;;;5052153;28;20205;-93
2021/12/17 06:37:03;;;;;;;19.97;9.57;;;8.70;99.90;;;;;;5049365;28;20195;-92
2021/12/17 06:39:30;;;;;;;16.50;8.83;;;8.70;99.90;;;;;;5062724;28;20209;-88
2021/12/17 06:41:57;;;;;;;24.80;11.60;;;8.70;99.90;;;;;;5072829;28;20209;-92
2021/12/17 06:44:26;;;;;;;31.43;13.70;;;8.70;99.90;;;;;;5062475;28;20217;-88
2021/12/17 06:46:58;;;;;;;26.30;11.27;;;8.70;99.90;;;;;;5052031;28;20205;-90
2021/12/17 06:49:41;;;;;;;26.30;12.67;;;8.70;99.90;;;;;;5060820;28;20818;-92
2021/12/17 06:55:04;;;;;;;23.97;10.73;;;8.70;99.90;;;;;;5072565;28;20215;-88
2021/12/17 07:00:21;;;;;;;31.53;13.60;;;8.80;99.90;;;;;;5049794;28;20213;-89
2021/12/17 07:05:58;;;;;;;33.23;15.17;;;8.80;99.90;;;;;;5050725;28;20196;-88
2021/12/17 07:11:19;;;;;;;50.63;20.63;;;8.80;99.90;;;;;;5072573;28;20274;-91
2021/12/17 07:22:21;;;;;;;34.50;13.30;;;8.90;99.90;;;;;;5029459;28;20615;-91
2021/12/17 07:28:01;;;;;;;28.80;12.57;;;8.90;99.90;;;;;;5048251;28;20213;-88
2021/12/17 07:33:09;;;;;;;32.17;14.97;;;8.80;99.90;;;;;;5055459;28;20216;-91
2021/12/17 07:35:44;;;;;;;29.53;13.40;;;8.80;99.90;;;;;;5055148;28;20194;-90
2021/12/17 07:41:11;;;;;;;25.97;13.50;;;8.80;99.90;;;;;;5013621;28;20324;-90
2021/12/17 07:43:40;;;;;;;28.10;13.43;;;8.80;99.90;;;;;;5013320;28;20599;-92
2021/12/17 07:46:11;;;;;;;27.53;13.00;;;8.80;99.90;;;;;;5031689;28;20310;-91
2021/12/17 07:48:39;;;;;;;28.00;12.67;;;8.80;99.90;;;;;;5054722;28;20214;-89
2021/12/17 07:51:09;;;;;;;28.33;12.93;;;8.80;99.90;;;;;;5053432;28;20284;-89
2021/12/17 07:53:37;;;;;;;31.90;14.33;;;8.80;99.90;;;;;;5053932;28;20237;-93
2021/12/17 07:56:21;;;;;;;37.00;15.47;;;8.80;99.90;;;;;;5042835;28;20881;-88
2021/12/17 07:58:48;;;;;;;31.07;14.30;;;8.80;99.90;;;;;;5055584;28;20520;-93
2021/12/17 08:01:15;;;;;;;23.10;11.90;;;8.80;99.90;;;;;;5055095;28;20205;-92
2021/12/17 08:03:43;;;;;;;27.37;13.23;;;8.70;99.90;;;;;;5055174;28;20208;-94
2021/12/17 08:06:11;;;;;;;24.63;12.47;;;8.70;99.90;;;;;;5055178;28;20610;-90
2021/12/17 08:08:39;;;;;;;23.60;12.23;;;8.70;99.90;;;;;;5054290;28;20245;-94
2021/12/17 08:11:07;;;;;;;26.53;12.63;;;8.70;99.90;;;;;;5055192;28;20213;-88
2021/12/17 08:13:36;;;;;;;24.43;12.13;;;8.70;99.90;;;;;;5051725;28;20222;-87
2021/12/17 08:16:14;;;;;;;20.23;10.80;;;8.70;99.90;;;;;;5054615;28;20295;-91
2021/12/17 08:18:51;;;;;;;20.63;10.50;;;8.70;99.90;;;;;;5054327;28;20205;-83
2021/12/17 08:24:45;;;;;;;19.77;10.53;;;8.70;99.90;;;;;;5055524;28;20353;-95
2021/12/17 08:27:26;;;;;;;20.77;10.73;;;8.70;99.90;;;;;;5054116;28;20289;-90
2021/12/17 08:30:07;;;;;;;25.83;11.07;;;8.70;99.90;;;;;;5055372;28;20300;-95
2021/12/17 08:32:34;;;;;;;22.03;11.70;;;8.80;99.90;;;;;;5056334;28;20217;-95
2021/12/17 08:35:01;;;;;;;26.43;13.00;;;8.80;99.90;;;;;;5074171;28;20201;-92
2021/12/17 08:37:29;;;;;;;24.37;11.97;;;8.80;99.90;;;;;;5073744;28;20605;-95
2021/12/17 08:39:57;;;;;;;20.70;11.50;;;8.80;99.90;;;;;;5073680;28;20288;-95
2021/12/17 08:42:24;;;;;;;17.27;10.37;;;8.80;99.90;;;;;;5071864;28;20201;-91
2021/12/17 08:44:51;;;;;;;16.63;9.23;;;8.90;99.90;;;;;;5074508;28;20208;-89
2021/12/17 08:47:18;;;;;;;21.23;11.23;;;8.90;99.90;;;;;;5065679;28;20599;-89
2021/12/17 08:49:45;;;;;;;19.53;10.27;;;9.00;99.90;;;;;;5054140;28;20272;-91
2021/12/17 08:52:13;;;;;;;24.70;11.30;;;9.00;99.90;;;;;;5054237;28;20241;-92
2021/12/17 08:54:40;;;;;;;23.27;11.90;;;9.00;99.90;;;;;;5053936;28;20230;-91
2021/12/17 08:57:09;;;;;;;23.17;12.23;;;9.10;99.90;;;;;;5058274;28;20497;-90
2021/12/17 08:59:36;;;;;;;21.50;12.07;;;9.10;99.90;;;;;;5072888;28;20205;-92
2021/12/17 09:02:04;;;;;;;19.20;11.13;;;9.10;99.90;;;;;;5074508;28;20194;-94
2021/12/17 09:04:31;;;;;;;24.03;13.23;;;9.10;99.90;;;;;;5073573;28;20488;-93
2021/12/17 09:06:58;;;;;;;22.17;12.93;;;9.10;99.90;;;;;;5056424;28;20216;-92
2021/12/17 09:09:27;;;;;;;24.47;12.60;;;9.10;99.90;;;;;;5053634;28;20253;-90
2021/12/17 09:11:54;;;;;;;21.63;11.80;;;9.10;99.90;;;;;;5053330;28;20197;-91
2021/12/17 09:14:22;;;;;;;24.10;12.30;;;9.10;99.90;;;;;;5053908;28;20225;-92
2021/12/17 09:16:50;;;;;;;23.23;11.93;;;9.10;99.90;;;;;;5053858;28;20611;-94
2021/12/17 09:19:19;;;;;;;25.37;12.40;;;9.10;99.90;;;;;;5053017;28;20194;-90
2021/12/17 09:21:48;;;;;;;25.23;13.40;;;9.10;99.90;;;;;;5052992;28;20610;-88
2021/12/17 09:24:14;;;;;;;26.07;11.77;;;9.10;99.90;;;;;;5049621;28;20224;-92
2021/12/17 09:26:41;;;;;;;26.23;12.07;;;9.10;99.90;;;;;;5052424;28;20194;-94
2021/12/17 09:29:08;;;;;;;24.10;11.40;;;9.20;99.90;;;;;;5073261;28;20301;-95
2021/12/17 09:31:37;;;;;;;22.30;11.37;;;9.20;99.90;;;;;;5064394;28;20221;-93
2021/12/17 09:34:05;;;;;;;18.67;9.70;;;9.20;99.90;;;;;;5053537;28;20237;-91
2021/12/17 09:36:33;;;;;;;23.30;10.17;;;9.30;99.90;;;;;;5053188;28;20194;-94
2021/12/17 09:39:00;;;;;;;19.17;10.13;;;9.20;99.90;;;;;;5061220;28;20209;-95
2021/12/17 09:41:27;;;;;;;23.53;11.77;;;9.30;99.90;;;;;;5072381;28;20495;-95
2021/12/17 09:43:55;;;;;;;18.10;8.80;;;9.30;99.90;;;;;;5074121;28;20201;-96
2021/12/17 09:46:23;;;;;;;17.07;9.07;;;9.30;99.90;;;;;;5053942;28;20202;-95
2021/12/17 09:48:51;;;;;;;19.70;10.00;;;9.30;99.90;;;;;;5053942;28;20206;-96
2021/12/17 09:51:20;;;;;;;17.60;8.57;;;9.40;99.90;;;;;;5053789;28;20501;-93
2021/12/17 09:53:48;;;;;;;15.67;7.93;;;9.40;99.90;;;;;;5055690;28;20214;-93
2021/12/17 09:56:16;;;;;;;12.67;6.67;;;9.40;99.90;;;;;;5068527;28;20236;-91
2021/12/17 09:58:45;;;;;;;9.70;5.60;;;9.40;99.90;;;;;;5064888;28;20255;-92
2021/12/17 10:01:12;;;;;;;8.10;4.00;;;9.40;99.90;;;;;;5059932;28;20209;-92
2021/12/17 10:03:39;;;;;;;7.47;4.70;;;9.40;99.90;;;;;;5057869;28;20213;-95
2021/12/17 10:06:21;;;;;;;8.67;4.60;;;9.40;99.90;;;;;;5064624;28;20210;-91
2021/12/17 10:08:48;;;;;;;6.87;3.70;;;9.30;99.90;;;;;;5059758;28;20240;-94
2021/12/17 10:11:20;;;;;;;6.20;4.07;;;9.30;99.90;;;;;;5055435;28;20194;-93
2021/12/17 10:13:48;;;;;;;7.87;4.37;;;9.30;99.90;;;;;;5063124;28;20307;-93
2021/12/17 10:16:20;;;;;;;9.87;5.23;;;9.30;99.90;;;;;;5059741;28;20758;-93
2021/12/17 10:19:02;;;;;;;8.40;4.73;;;9.30;99.90;;;;;;5059292;28;20201;-93
2021/12/17 10:21:30;;;;;;;9.57;5.70;;;9.30;99.90;;;;;;5058652;28;20212;-94
2021/12/17 10:23:58;;;;;;;7.57;4.30;;;9.30;99.90;;;;;;5055364;28;20215;-93
2021/12/17 10:26:26;;;;;;;9.50;5.40;;;9.40;99.90;;;;;;5060742;28;20892;-93
2021/12/17 10:28:54;;;;;;;9.03;5.20;;;9.40;99.90;;;;;;5071856;28;20197;-86
2021/12/17 10:31:22;;;;;;;11.90;6.70;;;9.40;99.90;;;;;;5071650;28;20197;-86
2021/12/17 10:33:50;;;;;;;9.70;5.63;;;9.50;99.90;;;;;;5072233;28;20248;-86
2021/12/17 10:36:17;;;;;;;9.80;6.10;;;9.50;99.90;;;;;;5054667;28;20217;-87
2021/12/17 10:38:46;;;;;;;8.80;5.73;;;9.50;99.90;;;;;;5052139;28;20206;-86
2021/12/17 10:41:15;;;;;;;10.13;6.23;;;9.40;99.90;;;;;;5052020;28;20615;-88
2021/12/17 10:43:50;;;;;;;7.50;4.87;;;9.50;99.90;;;;;;5054584;28;20225;-87
2021/12/17 10:46:25;;;;;;;10.20;4.93;;;9.50;99.90;;;;;;5055801;28;20270;-89
2021/12/17 10:48:56;;;;;;;6.90;4.73;;;9.50;99.90;;;;;;5052189;28;20614;-87
2021/12/17 10:51:44;;;;;;;7.93;4.73;;;9.50;99.90;;;;;;5051424;28;20222;-85
2021/12/17 10:54:15;;;;;;;6.63;4.43;;;9.50;99.90;;;;;;5061596;28;20233;-87
2021/12/17 10:56:44;;;;;;;5.70;3.90;;;9.50;99.90;;;;;;5069463;28;20255;-93
2021/12/17 10:59:13;;;;;;;7.73;4.47;;;9.50;99.90;;;;;;5070951;28;20221;-92
2021/12/17 11:01:45;;;;;;;7.13;4.17;;;9.50;99.90;;;;;;5072244;28;20205;-91
2021/12/17 11:04:21;;;;;;;5.93;3.70;;;9.50;99.90;;;;;;5052735;28;20316;-86
2021/12/17 11:06:54;;;;;;;5.47;3.70;;;9.50;99.90;;;;;;5056271;28;20788;-87
2021/12/17 11:09:47;;;;;;;4.90;3.50;;;9.50;99.90;;;;;;5054692;28;20792;-88
2021/12/17 11:12:26;;;;;;;5.37;3.63;;;9.50;99.90;;;;;;5056092;28;20495;-92
2021/12/17 11:14:54;;;;;;;5.90;3.60;;;9.60;99.90;;;;;;5056029;28;20610;-94
2021/12/17 11:17:21;;;;;;;5.30;3.50;;;9.60;99.90;;;;;;5055779;28;20541;-93
2021/12/17 11:19:52;;;;;;;5.10;3.60;;;9.50;99.90;;;;;;5055451;28;20202;-86
2021/12/17 11:22:19;;;;;;;3.67;3.33;;;9.50;99.90;;;;;;5055571;28;20220;-93
2021/12/17 11:24:48;;;;;;;5.03;3.90;;;9.60;99.90;;;;;;5060600;23;20544;-90
2021/12/17 11:27:15;;;;;;;4.97;4.03;;;9.60;99.90;;;;;;5047893;28;20222;-94
2021/12/17 11:29:43;;;;;;;6.87;4.53;;;9.60;99.90;;;;;;5034715;28;20206;-87
2021/12/17 11:32:10;;;;;;;4.50;4.00;;;9.50;99.90;;;;;;5035388;28;20209;-94
2021/12/17 11:34:38;;;;;;;5.07;4.03;;;9.50;99.90;;;;;;5035858;28;20254;-92
2021/12/17 11:37:08;;;;;;;6.03;4.80;;;9.50;99.90;;;;;;5036250;28;20206;-94
2021/12/17 11:39:41;;;;;;;5.27;4.33;;;9.50;99.90;;;;;;5042424;28;20206;-86
2021/12/17 11:42:29;;;;;;;4.67;4.07;;;9.50;99.90;;;;;;5055761;28;20194;-90
2021/12/17 11:47:38;;;;;;;6.03;5.07;;;9.50;99.90;;;;;;5054258;28;20213;-93
2021/12/17 11:50:06;;;;;;;5.43;4.13;;;9.50;99.90;;;;;;5054586;28;20213;-89
2021/12/17 11:52:42;;;;;;;8.53;5.13;;;9.50;99.90;;;;;;5055169;28;20204;-90
2021/12/17 11:55:28;;;;;;;6.33;4.53;;;9.50;99.90;;;;;;5054945;28;20225;-93
2021/12/17 11:58:00;;;;;;;7.77;6.13;;;9.50;99.90;;;;;;5054898;28;20230;-91
2021/12/17 12:00:31;;;;;;;10.47;7.07;;;9.60;99.90;;;;;;5054863;28;20256;-91
2021/12/17 12:03:15;;;;;;;7.03;6.33;;;9.60;99.90;;;;;;5048617;28;20195;-92
2021/12/17 12:05:43;;;;;;;8.13;5.90;;;9.60;99.90;;;;;;5034194;28;20195;-93
2021/12/17 12:08:30;;;;;;;5.60;5.00;;;9.60;99.90;;;;;;5034851;28;20203;-92
2021/12/17 12:11:06;;;;;;;6.97;5.13;;;9.60;99.90;;;;;;5035065;28;20484;-92
2021/12/17 12:13:42;;;;;;;7.87;5.00;;;9.60;99.90;;;;;;5034724;28;20206;-89
2021/12/17 12:16:11;;;;;;;4.70;4.20;;;9.60;99.90;;;;;;5035042;28;20187;-87
2021/12/17 12:18:47;;;;;;;6.47;4.60;;;9.60;99.90;;;;;;5036246;28;20203;-89
2021/12/17 12:21:17;;;;;;;7.40;5.67;;;9.60;99.90;;;;;;5035540;28;20210;-90
2021/12/17 12:23:50;;;;;;;8.47;5.80;;;9.60;99.90;;;;;;5035044;28;20202;-93
2021/12/17 12:26:33;;;;;;;7.23;5.23;;;9.60;99.90;;;;;;5035923;28;20550;-88
2021/12/17 12:29:05;;;;;;;6.40;4.57;;;9.60;99.90;;;;;;5053264;28;20520;-89
2021/12/17 12:31:45;;;;;;;5.10;4.47;;;9.60;99.90;;;;;;5051220;28;20212;-90
2021/12/17 12:34:14;;;;;;;6.50;5.10;;;9.60;99.90;;;;;;5049878;28;20237;-91
2021/12/17 12:36:49;;;;;;;7.03;5.53;;;9.60;99.90;;;;;;5031460;28;20221;-89
2021/12/17 12:39:19;;;;;;;6.87;5.20;;;9.50;99.90;;;;;;5032485;28;20206;-89
2021/12/17 12:41:48;;;;;;;6.53;4.83;;;9.50;99.90;;;;;;5032832;28;20230;-93
2021/12/17 12:44:17;;;;;;;6.57;4.70;;;9.50;99.90;;;;;;5032602;28;20213;-88
2021/12/17 12:46:51;;;;;;;7.17;4.67;;;9.50;99.90;;;;;;5032563;28;20207;-88
2021/12/17 12:49:43;;;;;;;5.93;4.73;;;9.50;99.90;;;;;;5030443;28;20210;-89
2021/12/17 12:52:22;;;;;;;7.40;5.50;;;9.60;99.90;;;;;;5030780;28;20594;-90
2021/12/17 12:54:50;;;;;;;6.43;4.43;;;9.50;99.90;;;;;;5032430;28;20218;-87
2021/12/17 12:57:25;;;;;;;6.93;4.60;;;9.50;99.90;;;;;;5032715;28;20299;-87
2021/12/17 12:59:55;;;;;;;6.53;5.17;;;9.50;99.90;;;;;;5034014;28;20194;-87
2021/12/17 13:02:25;;;;;;;6.67;4.77;;;9.50;99.90;;;;;;5034471;28;20214;-89
2021/12/17 13:04:54;;;;;;;6.70;5.57;;;9.50;99.90;;;;;;5033797;28;20626;-91
2021/12/17 13:07:32;;;;;;;6.23;5.03;;;9.50;99.90;;;;;;5035281;28;20242;-93
2021/12/17 13:10:05;;;;;;;6.57;5.43;;;9.50;99.90;;;;;;5033085;28;20814;-89
2021/12/17 13:12:35;;;;;;;7.00;5.70;;;9.50;99.90;;;;;;5043193;28;20224;-86
2021/12/17 13:15:19;;;;;;;7.07;5.80;;;9.50;99.90;;;;;;5042296;28;20226;-94
2021/12/17 13:20:57;;;;;;;6.80;5.37;;;9.50;99.90;;;;;;5034649;28;20244;-95
2021/12/17 13:23:25;;;;;;;6.63;5.40;;;9.50;99.90;;;;;;5037040;28;20250;-95
2021/12/17 13:26:04;;;;;;;7.70;6.27;;;9.50;99.90;;;;;;5051206;28;20268;-96
2021/12/17 13:28:51;;;;;;;8.77;6.37;;;9.50;99.90;;;;;;5043819;28;20210;-94
2021/12/17 13:31:38;;;;;;;8.53;6.60;;;9.50;99.90;;;;;;5031116;28;20214;-90
2021/12/17 13:34:17;;;;;;;8.17;5.80;;;9.50;99.90;;;;;;5033282;28;20190;-90
2021/12/17 13:36:52;;;;;;;7.27;6.17;;;9.50;99.90;;;;;;5031735;28;20181;-91
2021/12/17 13:39:20;;;;;;;8.37;6.50;;;9.50;99.90;;;;;;5032028;28;20598;-85
2021/12/17 13:41:48;;;;;;;7.57;6.43;;;9.40;99.90;;;;;;5031491;28;20206;-83
2021/12/17 13:44:31;;;;;;;8.67;7.23;;;9.40;99.90;;;;;;5031567;28;20230;-85
2021/12/17 13:47:10;;;;;;;7.50;6.70;;;9.40;99.90;;;;;;5034492;28;20209;-85
2021/12/17 13:49:38;;;;;;;8.37;6.67;;;9.40;99.90;;;;;;5050969;28;20210;-84
2021/12/17 13:52:06;;;;;;;8.30;6.10;;;9.40;99.90;;;;;;5042399;28;20218;-86
2021/12/17 13:54:33;;;;;;;8.20;7.17;;;9.50;99.90;;;;;;5031028;28;20222;-83
2021/12/17 13:57:02;;;;;;;7.40;6.53;;;9.50;99.90;;;;;;5030979;28;20191;-85
2021/12/17 13:59:31;;;;;;;9.53;7.30;;;9.40;99.90;;;;;;5027389;28;20206;-84
2021/12/17 14:01:58;;;;;;;8.20;7.27;;;9.40;99.90;;;;;;5030811;28;20289;-84
2021/12/17 14:04:26;;;;;;;7.60;6.80;;;9.40;99.90;;;;;;5049459;28;20209;-84
2021/12/17 14:06:54;;;;;;;12.10;8.53;;;9.40;99.90;;;;;;5051085;28;20209;-85
2021/12/17 14:09:23;;;;;;;10.90;7.30;;;9.40;99.90;;;;;;5050826;28;20238;-86
2021/12/17 14:11:50;;;;;;;9.73;7.37;;;9.40;99.90;;;;;;5035612;28;20238;-84
2021/12/17 14:14:24;;;;;;;9.10;7.17;;;9.40;99.90;;;;;;5030189;28;20203;-83
2021/12/17 14:16:58;;;;;;;9.07;7.50;;;9.40;99.90;;;;;;5031227;28;20229;-84
2021/12/17 14:19:41;;;;;;;8.37;7.47;;;9.40;99.90;;;;;;5030600;28;20202;-84
2021/12/17 14:22:30;;;;;;;8.77;7.23;;;9.40;99.90;;;;;;5030431;28;20214;-85
2021/12/17 14:24:58;;;;;;;9.87;7.73;;;9.40;99.90;;;;;;5030398;28;20635;-85
2021/12/17 14:27:44;;;;;;;8.87;7.53;;;9.40;99.90;;;;;;5028922;28;20210;-84
2021/12/17 14:30:12;;;;;;;10.43;7.73;;;9.50;99.90;;;;;;5030509;28;20225;-82
2021/12/17 14:32:43;;;;;;;10.77;8.37;;;9.50;99.90;;;;;;5031155;28;20194;-85
2021/12/17 14:35:12;;;;;;;9.03;7.73;;;9.50;99.90;;;;;;5030829;28;20214;-85
2021/12/17 14:37:49;;;;;;;9.13;7.93;;;9.60;99.90;;;;;;5030604;28;20203;-85
2021/12/17 14:40:29;;;;;;;9.90;8.70;;;9.50;99.90;;;;;;5032194;28;20229;-83
2021/12/17 14:42:57;;;;;;;9.83;8.17;;;9.60;99.90;;;;;;5040056;28;20239;-84
2021/12/17 14:45:33;;;;;;;9.20;7.57;;;9.50;99.90;;;;;;5042629;28;20202;-85
2021/12/17 14:48:16;;;;;;;8.33;7.23;;;9.50;99.90;;;;;;5035147;28;20665;-88
2021/12/17 15:02:27;;;;;;;9.70;8.03;;;9.50;99.90;;;;;;5034856;28;20197;-86
2021/12/17 15:04:54;;;;;;;9.50;8.50;;;9.50;99.90;;;;;;5033642;28;20269;-85
2021/12/17 15:07:23;;;;;;;10.63;9.30;;;9.50;99.90;;;;;;5034591;28;20187;-90
2021/12/17 15:09:50;;;;;;;11.03;9.70;;;9.50;99.90;;;;;;5032913;28;20829;-91
2021/12/17 15:12:37;;;;;;;10.47;9.37;;;9.50;99.90;;;;;;5050406;28;20218;-87
2021/12/17 15:15:08;;;;;;;10.70;9.20;;;9.50;99.90;;;;;;5053801;28;20321;-84
2021/12/17 15:17:35;;;;;;;10.83;9.20;;;9.50;99.90;;;;;;5053761;28;20582;-86
2021/12/17 15:20:02;;;;;;;10.20;9.10;;;9.50;99.90;;;;;;5054398;28;20301;-85
2021/12/17 15:22:30;;;;;;;11.50;10.20;;;9.50;99.90;;;;;;5053360;28;20347;-85
2021/12/17 15:24:57;;;;;;;13.30;10.83;;;9.50;99.90;;;;;;5052187;28;20234;-86
2021/12/17 15:27:24;;;;;;;11.17;9.77;;;9.50;99.90;;;;;;5053099;28;20222;-87
2021/12/17 15:29:51;;;;;;;10.87;9.63;;;9.60;99.90;;;;;;5032150;28;20218;-91
2021/12/17 15:32:18;;;;;;;10.53;9.00;;;9.50;99.90;;;;;;5031512;28;20599;-84
2021/12/17 15:34:44;;;;;;;11.47;10.23;;;9.50;99.90;;;;;;5032805;28;20202;-85
2021/12/17 15:37:11;;;;;;;11.70;9.67;;;9.50;99.90;;;;;;5040122;28;20204;-85
2021/12/17 15:39:39;;;;;;;11.17;10.00;;;9.50;99.90;;;;;;5051081;28;20194;-88